Time;durP1;ratioP1;P1;durP2;ratioP2;P2;SDS_P1;SDS_P2;PMS_P1;PMS_P2;Temp;Humidity;BMP_temperature;BMP_pressure;BME280_temperature;BME280_humidity;BME280_pressure;Samples;Min_cycle;Max_cycle;Signal;HPM_P1;HPM_P2
2022/04/14 00:01:57;;;;;;;49.38;29.48;;;;;;;9.26;56.33;100583.63;5035079;28;20036;-77
2022/04/14 00:04:22;;;;;;;49.85;30.00;;;;;;;9.22;55.89;100580.13;5035570;28;20033;-76
2022/04/14 00:06:48;;;;;;;43.85;28.83;;;;;;;9.20;55.33;100576.94;5035833;28;20152;-76
2022/04/14 00:09:14;;;;;;;48.45;29.67;;;;;;;9.20;55.86;100559.09;5035251;28;20124;-76
2022/04/14 00:11:40;;;;;;;50.75;29.60;;;;;;;9.20;55.73;100576.94;5034854;28;20037;-76
2022/04/14 00:14:07;;;;;;;47.15;28.33;;;;;;;9.22;56.28;100582.97;5036532;28;20025;-76
2022/04/14 00:16:34;;;;;;;47.83;29.80;;;;;;;9.19;55.79;100577.41;5018243;28;20163;-76
2022/04/14 00:19:00;;;;;;;43.50;29.05;;;;;;;9.12;56.55;100569.97;5051492;28;20604;-76
2022/04/14 00:21:27;;;;;;;46.40;27.95;;;;;;;9.14;56.42;100567.44;5037250;28;20033;-76
2022/04/14 00:23:53;;;;;;;44.35;27.92;;;;;;;9.07;56.24;100570.56;5018510;28;20116;-78
2022/04/14 00:26:19;;;;;;;53.53;29.13;;;;;;;8.90;56.10;100547.22;5034411;28;20544;-76
2022/04/14 00:28:46;;;;;;;51.53;30.10;;;;;;;9.04;55.50;100575.09;5018434;28;20136;-76
2022/04/14 00:31:12;;;;;;;50.10;29.85;;;;;;;9.01;56.30;100583.75;5034801;28;20100;-78
2022/04/14 00:33:40;;;;;;;52.70;30.15;;;;;;;8.98;56.31;100578.97;5054524;28;20025;-78
2022/04/14 00:36:06;;;;;;;52.78;29.42;;;;;;;8.98;55.55;100593.97;5055966;28;20021;-76
2022/04/14 00:38:32;;;;;;;55.33;31.02;;;;;;;8.92;55.81;100575.97;5021223;28;20079;-76
2022/04/14 00:41:00;;;;;;;50.70;30.63;;;;;;;8.95;55.70;100592.06;5021089;28;20029;-76
2022/04/14 00:43:35;;;;;;;53.78;30.83;;;;;;;8.92;56.45;100587.31;5036603;28;20044;-76
2022/04/14 00:46:01;;;;;;;54.67;31.90;;;;;;;8.88;56.10;100588.72;5036537;28;20036;-75
2022/04/14 00:48:28;;;;;;;54.28;30.95;;;;;;;8.85;56.49;100576.22;5036413;28;20162;-75
2022/04/14 00:50:57;;;;;;;56.70;32.20;;;;;;;8.81;56.30;100586.91;5036548;28;20163;-75
2022/04/14 00:53:23;;;;;;;54.08;32.53;;;;;;;8.69;56.38;100573.53;5036416;28;20043;-76
2022/04/14 00:56:09;;;;;;;52.17;31.10;;;;;;;8.71;57.50;100587.28;5054401;28;20029;-77
2022/04/14 00:58:36;;;;;;;50.13;30.45;;;;;;;8.66;56.58;100580.16;5036609;28;20037;-74
2022/04/14 01:01:05;;;;;;;54.22;31.15;;;;;;;8.63;57.17;100584.69;5037554;28;20037;-75
2022/04/14 01:03:39;;;;;;;52.80;31.05;;;;;;;8.61;57.52;100584.34;5021100;28;20401;-72
2022/04/14 01:06:06;;;;;;;47.35;29.02;;;;;;;8.53;57.78;100568.84;5037452;28;20021;-74
2022/04/14 01:08:32;;;;;;;52.08;29.92;;;;;;;8.57;57.88;100591.41;5020150;28;20053;-74
2022/04/14 01:11:12;;;;;;;47.78;28.95;;;;;;;8.60;57.43;100585.59;5037114;28;20043;-74
2022/04/14 01:13:39;;;;;;;49.15;28.90;;;;;;;8.58;57.38;100576.75;5037228;28;20466;-74
2022/04/14 01:16:04;;;;;;;45.38;27.42;;;;;;;8.52;57.71;100570.09;5055178;28;20423;-74
2022/04/14 01:18:31;;;;;;;51.80;29.20;;;;;;;8.55;57.46;100571.19;5054938;28;20029;-74
2022/04/14 01:20:57;;;;;;;48.85;28.80;;;;;;;8.52;57.68;100569.28;5054925;28;20056;-74
2022/04/14 01:23:44;;;;;;;44.13;27.65;;;;;;;8.61;57.30;100577.88;5020310;28;20055;-74
2022/04/14 01:26:11;;;;;;;46.60;28.35;;;;;;;8.64;56.83;100582.63;5036819;28;20090;-73
2022/04/14 01:28:37;;;;;;;45.67;29.45;;;;;;;8.64;56.59;100586.28;5020271;28;20128;-74
2022/04/14 01:31:03;;;;;;;43.55;29.52;;;;;;;8.63;56.66;100592.44;5036732;28;20159;-74
2022/04/14 01:33:29;;;;;;;47.88;29.38;;;;;;;8.64;56.19;100591.94;5033258;28;20056;-74
2022/04/14 01:35:55;;;;;;;46.05;28.42;;;;;;;8.60;56.92;100587.66;5033434;28;20029;-74
2022/04/14 01:38:22;;;;;;;45.13;28.55;;;;;;;8.61;56.82;100590.03;5032753;28;20136;-74
2022/04/14 01:40:49;;;;;;;48.90;29.65;;;;;;;8.60;56.43;100588.44;5033231;28;20032;-74
2022/04/14 01:43:15;;;;;;;48.05;28.85;;;;;;;8.61;56.68;100590.03;5016924;28;20041;-74
2022/04/14 01:45:40;;;;;;;54.45;31.05;;;;;;;8.57;56.82;100583.69;5034645;28;20025;-74
2022/04/14 01:48:06;;;;;;;51.95;29.55;;;;;;;8.58;57.02;100590.16;5035098;28;20047;-74
2022/04/14 01:50:33;;;;;;;52.05;30.52;;;;;;;8.54;56.51;100584.59;5016903;28;20048;-74
2022/04/14 01:52:58;;;;;;;51.80;31.10;;;;;;;8.51;56.69;100579.84;5034428;28;20029;-74
2022/04/14 01:55:26;;;;;;;48.55;29.83;;;;;;;8.51;57.18;100573.38;5033297;28;20100;-74
2022/04/14 01:57:51;;;;;;;47.30;29.45;;;;;;;8.46;57.19;100571.91;5034612;28;20124;-73
2022/04/14 02:00:18;;;;;;;54.53;30.75;;;;;;;8.47;57.30;100576.34;5035148;28;20502;-74
2022/04/14 02:02:44;;;;;;;51.47;31.98;;;;;;;8.46;57.34;100571.13;5033191;28;20501;-74
2022/04/14 02:05:11;;;;;;;55.78;32.75;;;;;;;8.42;57.89;100574.09;5032802;28;20120;-74
2022/04/14 02:07:37;;;;;;;48.95;29.45;;;;;;;8.35;57.17;100565.78;5036803;28;20048;-74
2022/04/14 02:10:03;;;;;;;51.78;32.40;;;;;;;8.33;57.37;100567.53;5034831;28;20029;-73
2022/04/14 02:12:29;;;;;;;53.03;33.38;;;;;;;8.29;57.85;100576.09;5034308;28;20107;-74
2022/04/14 02:14:58;;;;;;;49.08;32.53;;;;;;;8.29;57.79;100572.50;5031910;28;20061;-73
2022/04/14 02:17:24;;;;;;;55.45;32.95;;;;;;;8.28;58.14;100577.38;5052535;28;20124;-73
2022/04/14 02:19:51;;;;;;;54.38;32.97;;;;;;;8.21;57.98;100563.41;5051719;28;20052;-74
2022/04/14 02:22:17;;;;;;;50.20;33.75;;;;;;;8.18;58.65;100570.81;5052570;28;20073;-73
2022/04/14 02:24:43;;;;;;;51.00;33.35;;;;;;;8.21;58.10;100575.56;5053774;28;20083;-74
2022/04/14 02:27:10;;;;;;;55.40;35.13;;;;;;;8.22;57.78;100570.69;5052084;28;20069;-75
2022/04/14 02:29:36;;;;;;;54.22;34.60;;;;;;;8.22;58.44;100571.47;5053812;28;20500;-73
2022/04/14 02:32:02;;;;;;;55.55;34.50;;;;;;;8.12;58.50;100563.31;5052034;28;20178;-73
2022/04/14 02:34:28;;;;;;;57.45;34.40;;;;;;;8.18;58.46;100570.00;5052796;28;20060;-73
2022/04/14 02:36:58;;;;;;;67.57;36.08;;;;;;;8.13;58.60;100562.06;5053764;28;20044;-72
2022/04/14 02:39:25;;;;;;;59.05;34.72;;;;;;;8.14;58.80;100570.13;5052391;28;20159;-73
2022/04/14 02:41:53;;;;;;;61.25;36.83;;;;;;;8.14;58.47;100569.34;5052290;28;20032;-73
2022/04/14 02:44:19;;;;;;;66.78;36.08;;;;;;;8.08;58.22;100559.81;5052075;28;20351;-73
2022/04/14 02:46:59;;;;;;;57.50;35.15;;;;;;;8.13;58.32;100562.06;5052474;28;20028;-73
2022/04/14 02:49:26;;;;;;;65.97;37.05;;;;;;;8.11;58.40;100547.53;5053374;28;20481;-74
2022/04/14 02:51:53;;;;;;;63.65;36.20;;;;;;;8.09;58.17;100545.16;5052107;28;20021;-73
2022/04/14 02:54:19;;;;;;;62.03;35.30;;;;;;;8.10;58.31;100555.25;5051994;28;20047;-74
2022/04/14 02:56:45;;;;;;;63.95;34.88;;;;;;;8.04;58.04;100550.63;5053517;28;20107;-75
2022/04/14 02:59:11;;;;;;;59.28;33.85;;;;;;;8.04;58.40;100548.56;5053210;28;20103;-75
2022/04/14 03:01:37;;;;;;;58.67;33.75;;;;;;;7.99;58.32;100554.81;5052188;28;20028;-73
2022/04/14 03:04:03;;;;;;;54.88;33.55;;;;;;;8.04;58.59;100562.75;5052175;28;20108;-73
2022/04/14 03:06:37;;;;;;;58.33;33.85;;;;;;;8.01;58.48;100560.03;5053020;28;20098;-73
2022/04/14 03:09:02;;;;;;;57.13;33.38;;;;;;;8.02;58.20;100564.47;5035391;28;20021;-74
2022/04/14 03:11:27;;;;;;;58.85;32.55;;;;;;;7.96;58.02;100552.91;5051970;28;20033;-73
2022/04/14 03:13:53;;;;;;;54.17;32.50;;;;;;;7.96;58.35;100554.94;5068556;28;20087;-74
2022/04/14 03:16:22;;;;;;;57.08;32.45;;;;;;;8.00;58.27;100553.56;5051998;28;20088;-73
2022/04/14 03:18:48;;;;;;;52.75;31.60;;;;;;;7.95;58.43;100547.66;5035342;28;20043;-73
2022/04/14 03:21:14;;;;;;;57.60;33.30;;;;;;;7.98;58.27;100550.41;5053205;28;20032;-73
2022/04/14 03:23:40;;;;;;;60.33;33.45;;;;;;;7.98;58.15;100555.28;5051582;28;20033;-73
2022/04/14 03:26:08;;;;;;;55.72;32.47;;;;;;;7.97;58.42;100551.66;5052019;28;20457;-73
2022/04/14 03:28:36;;;;;;;60.88;33.38;;;;;;;7.95;58.61;100553.34;5050999;28;20389;-73
2022/04/14 03:31:02;;;;;;;55.80;33.35;;;;;;;7.95;58.49;100556.97;5053242;28;20079;-73
2022/04/14 03:33:28;;;;;;;59.15;33.30;;;;;;;7.90;58.44;100546.19;5034947;28;20049;-74
2022/04/14 03:35:53;;;;;;;60.63;33.25;;;;;;;7.88;58.73;100545.09;5052586;28;20049;-74
2022/04/14 03:38:20;;;;;;;63.25;34.75;;;;;;;7.78;58.85;100530.00;5051631;28;20367;-74
2022/04/14 03:40:47;;;;;;;57.25;33.83;;;;;;;7.76;59.01;100530.44;5051698;28;20021;-74
2022/04/14 03:43:13;;;;;;;61.72;35.17;;;;;;;7.77;59.19;100540.56;5051404;28;20029;-74
2022/04/14 03:45:38;;;;;;;61.17;34.55;;;;;;;7.73;59.05;100527.75;5052949;28;20090;-74
2022/04/14 03:48:06;;;;;;;59.17;34.63;;;;;;;7.69;59.38;100542.03;5051462;28;20104;-74
2022/04/14 03:50:32;;;;;;;71.30;34.75;;;;;;;7.65;59.31;100535.66;5053006;28;20032;-73
2022/04/14 03:53:00;;;;;;;55.05;32.10;;;;;;;7.58;59.33;100535.09;5052347;28;20112;-74
2022/04/14 03:55:26;;;;;;;51.90;32.28;;;;;;;7.56;59.35;100526.25;5052806;28;20112;-74
2022/04/14 03:57:51;;;;;;;58.30;34.42;;;;;;;7.44;59.90;100524.22;5051572;28;20108;-75
2022/04/14 04:00:17;;;;;;;53.20;33.17;;;;;;;7.43;60.16;100529.09;5052804;28;20033;-74
2022/04/14 04:02:42;;;;;;;53.17;31.75;;;;;;;7.40;59.74;100532.81;5055749;28;20103;-74
2022/04/14 04:05:09;;;;;;;58.25;33.17;;;;;;;7.33;60.41;100528.19;5055900;28;20037;-74
2022/04/14 04:07:35;;;;;;;61.33;33.10;;;;;;;7.36;59.77;100532.94;5054984;28;20060;-74
2022/04/14 04:10:01;;;;;;;55.53;32.72;;;;;;;7.39;59.97;100539.75;5055150;28;20076;-75
2022/04/14 04:12:27;;;;;;;54.58;31.88;;;;;;;7.28;60.47;100525.91;5038464;28;20072;-72
2022/04/14 04:14:54;;;;;;;49.45;32.05;;;;;;;7.34;60.98;100526.13;5055195;28;20029;-74
2022/04/14 04:17:21;;;;;;;50.50;30.70;;;;;;;7.30;60.18;100525.47;5055066;28;20056;-73
2022/04/14 04:19:47;;;;;;;48.63;29.60;;;;;;;7.40;60.28;100529.22;5055888;28;20388;-74
2022/04/14 04:22:14;;;;;;;53.30;32.20;;;;;;;7.43;59.81;100536.78;5054683;28;20024;-74
2022/04/14 04:24:40;;;;;;;62.47;30.70;;;;;;;7.51;59.15;100536.13;5054801;28;20104;-74
2022/04/14 04:27:06;;;;;;;56.03;31.20;;;;;;;7.60;59.07;100530.56;5071711;28;20136;-74
2022/04/14 04:29:33;;;;;;;52.85;30.85;;;;;;;7.69;58.77;100527.88;5054704;28;20470;-74
2022/04/14 04:32:00;;;;;;;57.65;30.58;;;;;;;7.79;58.37;100532.38;5035819;28;20057;-74
2022/04/14 04:34:25;;;;;;;63.00;29.60;;;;;;;7.86;58.19;100514.34;5051258;28;20068;-74
2022/04/14 04:36:51;;;;;;;53.97;29.10;;;;;;;8.01;57.86;100521.13;5034405;28;20025;-73
2022/04/14 04:39:17;;;;;;;50.05;30.17;;;;;;;8.12;57.57;100512.25;5036622;28;20409;-75
2022/04/14 04:41:43;;;;;;;54.03;30.23;;;;;;;8.23;57.40;100516.31;5034518;28;20033;-74
2022/04/14 04:44:09;;;;;;;51.92;29.25;;;;;;;8.34;57.33;100518.03;5051098;28;20032;-74
2022/04/14 04:46:45;;;;;;;47.33;29.35;;;;;;;8.46;56.70;100517.97;5033992;28;20037;-74
2022/04/14 04:49:12;;;;;;;49.05;29.55;;;;;;;8.51;56.59;100511.72;5034226;28;20045;-75
2022/04/14 04:51:38;;;;;;;49.72;28.67;;;;;;;8.67;56.12;100510.75;5050730;28;20152;-75
2022/04/14 04:54:05;;;;;;;52.13;29.80;;;;;;;8.80;55.47;100519.19;5035570;28;20021;-75
2022/04/14 04:56:31;;;;;;;54.95;29.95;;;;;;;8.86;55.48;100517.34;5035064;28;20474;-75
2022/04/14 04:58:58;;;;;;;47.60;29.50;;;;;;;8.95;55.47;100523.09;5035979;28;20052;-74
2022/04/14 05:01:25;;;;;;;56.65;30.40;;;;;;;9.02;55.03;100526.47;5035309;28;20045;-74
2022/04/14 05:03:52;;;;;;;55.60;32.65;;;;;;;9.03;54.73;100521.56;5050328;28;20079;-75
2022/04/14 05:06:19;;;;;;;57.13;30.67;;;;;;;9.07;55.09;100519.41;5034541;28;20052;-76
2022/04/14 05:08:49;;;;;;;53.50;28.98;;;;;;;9.13;54.22;100508.25;5034692;28;20041;-76
2022/04/14 05:11:14;;;;;;;53.20;30.02;;;;;;;9.29;54.82;100519.38;5033809;28;20030;-74
2022/04/14 05:13:40;;;;;;;53.33;29.90;;;;;;;9.35;53.81;100523.19;5033772;28;20017;-75
2022/04/14 05:16:07;;;;;;;59.17;28.52;;;;;;;9.27;53.91;100525.53;5016760;28;20486;-75
2022/04/14 05:18:33;;;;;;;56.45;29.17;;;;;;;9.40;54.34;100529.06;5050295;28;20025;-76
2022/04/14 05:21:00;;;;;;;55.85;30.20;;;;;;;9.54;54.33;100534.19;5033730;28;20124;-75
2022/04/14 05:23:26;;;;;;;62.13;29.90;;;;;;;9.72;53.78;100533.47;5033132;28;20029;-75
2022/04/14 05:25:54;;;;;;;61.05;30.15;;;;;;;9.90;53.44;100536.41;5050029;28;20486;-76
2022/04/14 05:28:20;;;;;;;52.95;30.35;;;;;;;10.12;52.52;100533.44;5034675;28;20048;-75
2022/04/14 05:30:45;;;;;;;58.80;31.20;;;;;;;10.36;52.46;100534.47;5016558;28;20041;-75
2022/04/14 05:33:13;;;;;;;52.78;29.10;;;;;;;10.58;52.66;100531.50;5049345;28;20056;-75
2022/04/14 05:35:39;;;;;;;53.00;28.67;;;;;;;10.79;52.02;100530.56;5034432;28;20044;-75
2022/04/14 05:38:06;;;;;;;54.72;28.67;;;;;;;10.94;51.88;100529.94;5049948;28;20481;-77
2022/04/14 05:40:33;;;;;;;55.38;29.95;;;;;;;11.04;51.09;100532.31;5049675;28;20029;-76
2022/04/14 05:42:59;;;;;;;50.13;28.08;;;;;;;11.24;50.85;100532.59;5032762;28;20405;-76
2022/04/14 05:45:25;;;;;;;51.60;28.40;;;;;;;11.31;50.80;100527.81;5065631;28;20032;-77
2022/04/14 05:47:51;;;;;;;44.90;28.88;;;;;;;11.51;51.13;100530.91;5035054;28;20025;-77
2022/04/14 05:50:16;;;;;;;50.78;29.45;;;;;;;11.64;50.76;100528.69;5051750;28;20025;-76
2022/04/14 05:52:48;;;;;;;42.45;27.70;;;;;;;11.94;50.39;100532.53;5051616;28;20028;-76
2022/04/14 05:55:13;;;;;;;57.28;29.80;;;;;;;12.11;49.82;100528.00;5052895;28;20017;-80
2022/04/14 05:57:50;;;;;;;50.05;30.08;;;;;;;12.29;50.04;100530.72;5035423;28;20039;-80
2022/04/14 06:00:21;;;;;;;57.53;32.05;;;;;;;12.47;50.28;100527.78;5053900;28;20020;-81
2022/04/14 06:02:50;;;;;;;53.58;31.33;;;;;;;12.55;49.72;100525.31;5051219;28;20025;-76
2022/04/14 06:05:16;;;;;;;60.00;31.70;;;;;;;12.79;49.20;100542.44;5053716;28;20535;-77
2022/04/14 06:07:43;;;;;;;50.80;29.23;;;;;;;12.90;49.23;100536.97;5052493;28;20031;-78
2022/04/14 06:10:09;;;;;;;59.00;30.67;;;;;;;13.06;49.20;100527.94;5045109;28;20036;-78
2022/04/14 06:12:40;;;;;;;73.13;33.28;;;;;;;13.15;48.75;100510.69;5053033;28;20114;-82
2022/04/14 06:15:08;;;;;;;53.75;28.88;;;;;;;13.39;48.94;100525.69;5048830;28;20013;-79
2022/04/14 06:17:40;;;;;;;52.60;31.45;;;;;;;13.58;48.75;100532.00;5031267;28;20034;-81
2022/04/14 06:20:07;;;;;;;;;;;;;;;13.72;48.55;100533.28;5031527;28;20029;-77
2022/04/14 06:22:46;;;;;;;63.90;30.40;;;;;;;13.81;48.12;100513.91;5031997;28;19966;-81
2022/04/14 06:25:13;;;;;;;77.15;31.08;;;;;;;13.99;48.10;100517.84;5031597;28;20036;-79
2022/04/14 06:27:45;;;;;;;120.93;34.63;;;;;;;14.38;47.91;100533.53;5015018;28;20046;-78
2022/04/14 06:30:16;;;;;;;79.80;32.38;;;;;;;14.67;47.73;100521.16;5014867;28;20486;-77
2022/04/14 06:33:04;;;;;;;100.07;35.33;;;;;;;14.97;47.06;100513.16;5046707;28;20068;-79
2022/04/14 06:35:30;;;;;;;93.55;33.50;;;;;;;15.55;46.79;100517.69;5022307;28;20025;-80
2022/04/14 06:37:56;;;;;;;63.00;31.55;;;;;;;16.34;45.44;100514.84;5038732;28;20028;-81
2022/04/14 06:40:22;;;;;;;56.13;28.45;;;;;;;16.99;43.15;100494.75;5038393;28;20048;-81
2022/04/14 06:43:09;;;;;;;58.63;28.65;;;;;;;18.40;40.87;100512.31;5021327;28;20039;-80
2022/04/14 06:45:34;;;;;;;50.75;28.45;;;;;;;19.78;39.28;100512.91;5054215;28;20116;-80
2022/04/14 06:48:01;;;;;;;46.50;26.13;;;;;;;20.96;36.22;100497.97;5052855;28;20116;-79
2022/04/14 06:50:27;;;;;;;41.63;25.55;;;;;;;22.09;35.29;100498.59;5053303;28;20097;-80
2022/04/14 06:52:53;;;;;;;59.33;26.27;;;;;;;23.00;30.24;100514.47;5035145;28;20426;-76
2022/04/14 06:55:21;;;;;;;39.88;22.92;;;;;;;23.37;30.83;100499.63;5055099;28;20404;-75
2022/04/14 06:58:08;;;;;;;35.33;22.52;;;;;;;23.82;28.99;100513.91;5054506;28;20047;-76
2022/04/14 07:00:48;;;;;;;44.50;23.77;;;;;;;24.35;29.75;100516.50;5036106;28;20028;-76
2022/04/14 07:03:14;;;;;;;39.30;22.17;;;;;;;24.74;28.81;100509.56;5073050;28;20020;-77
2022/04/14 07:05:39;;;;;;;35.35;21.33;;;;;;;25.26;28.50;100517.06;5072995;28;20111;-75
2022/04/14 07:08:05;;;;;;;32.90;22.48;;;;;;;25.79;26.52;100485.91;5055126;28;20036;-77
2022/04/14 07:10:31;;;;;;;27.75;20.40;;;;;;;25.62;27.33;100468.16;5055029;28;20070;-76
2022/04/14 07:12:57;;;;;;;39.70;22.17;;;;;;;26.37;26.88;100497.97;5072834;28;20021;-75
2022/04/14 07:15:24;;;;;;;56.85;22.38;;;;;;;26.86;24.77;100498.28;5054996;28;20036;-76
2022/04/14 07:17:52;;;;;;;26.15;19.17;;;;;;;26.78;24.96;100491.69;5071555;28;20025;-75
2022/04/14 07:20:18;;;;;;;32.10;19.65;;;;;;;26.99;25.29;100498.03;5054813;28;20028;-74
2022/04/14 07:22:52;;;;;;;27.08;18.55;;;;;;;27.31;24.39;100488.56;5055042;28;20036;-77
2022/04/14 07:25:19;;;;;;;24.73;18.85;;;;;;;27.55;25.32;100495.84;5072666;28;20035;-77
2022/04/14 07:27:45;;;;;;;33.88;19.48;;;;;;;27.31;24.92;100473.16;5054864;28;20480;-78
2022/04/14 07:30:12;;;;;;;25.52;18.92;;;;;;;27.62;24.88;100495.03;5075940;28;20028;-77
2022/04/14 07:32:45;;;;;;;22.58;18.23;;;;;;;27.73;24.96;100485.00;5063433;28;20073;-83
2022/04/14 07:35:12;;;;;;;32.95;18.77;;;;;;;28.20;23.79;100487.78;5058662;28;20467;-74
2022/04/14 07:37:38;;;;;;;47.63;20.27;;;;;;;28.27;24.62;100480.31;5059630;28;20165;-79
2022/04/14 07:40:05;;;;;;;58.65;20.35;;;;;;;28.83;24.62;100486.56;5076997;28;20048;-76
2022/04/14 07:42:36;;;;;;;43.67;19.55;;;;;;;29.50;23.56;100495.94;5084138;28;20529;-78
2022/04/14 07:45:03;;;;;;;30.67;16.73;;;;;;;29.86;22.72;100483.41;5052048;28;20028;-81
2022/04/14 07:47:30;;;;;;;38.63;18.90;;;;;;;29.97;22.19;100457.22;5071694;28;20035;-85
2022/04/14 07:49:56;;;;;;;23.30;16.08;;;;;;;30.25;21.03;100499.06;5059104;28;20130;-77
2022/04/14 07:52:23;;;;;;;20.35;15.40;;;;;;;30.28;21.88;100483.16;5065136;28;20028;-83
2022/04/14 07:54:57;;;;;;;21.73;15.07;;;;;;;29.97;20.82;100497.59;5097569;28;20024;-74
2022/04/14 07:57:41;;;;;;;21.63;13.02;;;;;;;30.51;21.13;100495.28;5082458;28;20024;-79
2022/04/14 08:00:07;;;;;;;17.55;11.50;;;;;;;30.18;20.93;100494.09;5057612;28;20029;-78
2022/04/14 08:02:34;;;;;;;15.93;11.90;;;;;;;29.86;20.51;100501.06;5056714;28;20028;-79
2022/04/14 08:04:59;;;;;;;15.38;11.10;;;;;;;29.84;21.89;100495.03;5082586;28;20385;-76
2022/04/14 08:07:26;;;;;;;15.85;11.55;;;;;;;29.41;20.16;100488.59;5080074;28;20024;-75
2022/04/14 08:09:53;;;;;;;19.85;12.07;;;;;;;29.05;22.15;100501.00;5096618;28;20035;-76
2022/04/14 08:12:18;;;;;;;20.42;10.93;;;;;;;28.99;22.39;100496.75;5091183;28;20020;-75
2022/04/14 08:14:52;;;;;;;15.32;11.05;;;;;;;29.03;22.04;100489.06;5077017;28;20121;-76
2022/04/14 08:17:20;;;;;;;17.95;10.93;;;;;;;29.32;22.79;100489.31;5076590;28;20021;-78
2022/04/14 08:19:47;;;;;;;15.80;11.05;;;;;;;28.98;22.06;100490.13;5076163;28;20035;-76
2022/04/14 08:22:13;;;;;;;18.60;10.98;;;;;;;29.03;21.50;100491.22;5073387;28;20032;-76
2022/04/14 08:24:40;;;;;;;17.83;10.55;;;;;;;28.99;21.84;100487.97;5040637;28;20477;-77
2022/04/14 08:27:06;;;;;;;25.35;9.85;;;;;;;28.87;23.24;100487.69;5076930;28;20025;-83
2022/04/14 08:29:32;;;;;;;18.73;9.85;;;;;;;28.86;22.63;100492.03;5075229;28;20020;-76
2022/04/14 08:31:58;;;;;;;14.93;8.90;;;;;;;28.93;22.30;100485.28;5078380;28;20048;-79
2022/04/14 08:34:26;;;;;;;31.27;9.85;;;;;;;28.50;21.53;100480.84;5083207;28;20064;-82
2022/04/14 08:36:52;;;;;;;11.23;7.85;;;;;;;28.09;22.21;100482.38;5086573;28;20586;-74
2022/04/14 08:39:18;;;;;;;15.43;8.35;;;;;;;28.01;23.32;100480.91;5056195;28;20032;-82
2022/04/14 08:41:48;;;;;;;13.27;7.78;;;;;;;28.15;22.93;100470.44;5095870;28;20031;-78
2022/04/14 08:44:17;;;;;;;12.23;9.35;;;;;;;28.24;22.27;100473.47;5081112;28;20080;-78
2022/04/14 08:46:43;;;;;;;12.10;6.70;;;;;;;28.24;22.03;100469.78;5077238;28;20391;-77
2022/04/14 08:49:09;;;;;;;14.05;8.32;;;;;;;28.07;22.22;100467.56;5083754;28;20016;-81
2022/04/14 08:51:37;;;;;;;20.65;8.27;;;;;;;28.08;22.98;100465.38;5092699;28;20487;-75
2022/04/14 08:54:06;;;;;;;23.70;7.22;;;;;;;27.77;23.03;100465.66;5045213;28;20028;-80
2022/04/14 08:56:34;;;;;;;22.40;8.00;;;;;;;27.93;22.41;100463.38;5090102;28;20020;-79
2022/04/14 08:59:00;;;;;;;12.82;7.28;;;;;;;28.01;21.46;100475.03;5062366;28;20464;-77
2022/04/14 09:01:28;;;;;;;12.80;7.60;;;;;;;27.88;21.22;100467.31;5063574;28;20023;-75
2022/04/14 09:03:58;;;;;;;17.05;7.28;;;;;;;27.87;22.83;100459.94;5088648;28;20067;-78
2022/04/14 09:06:44;;;;;;;14.05;7.40;;;;;;;27.92;23.41;100455.97;5069505;28;20024;-79
2022/04/14 09:09:11;;;;;;;10.93;6.43;;;;;;;27.91;22.18;100452.28;5077165;28;20465;-78
2022/04/14 09:11:39;;;;;;;14.77;6.97;;;;;;;27.88;23.62;100450.53;5062994;28;20111;-81
2022/04/14 09:14:05;;;;;;;19.90;7.35;;;;;;;27.86;22.11;100465.00;5074808;28;20522;-78
2022/04/14 09:16:46;;;;;;;13.40;7.45;;;;;;;27.71;23.48;100453.41;5040234;28;20115;-78
2022/04/14 09:19:11;;;;;;;13.63;6.25;;;;;;;27.39;23.04;100457.09;5056845;28;20020;-79
2022/04/14 09:21:57;;;;;;;14.30;6.78;;;;;;;27.14;22.37;100455.47;5074621;28;20027;-79
2022/04/14 09:24:52;;;;;;;19.00;7.25;;;;;;;27.10;22.37;100452.97;5073423;28;20021;-79
2022/04/14 09:27:39;;;;;;;16.38;6.78;;;;;;;27.40;22.52;100458.66;5073384;28;20108;-78
2022/04/14 09:30:18;;;;;;;14.35;7.80;;;;;;;27.51;22.09;100463.31;5073159;28;20045;-78
2022/04/14 09:32:44;;;;;;;9.93;6.55;;;;;;;27.60;22.30;100453.09;5051561;28;20055;-78
2022/04/14 09:35:23;;;;;;;20.13;7.38;;;;;;;27.52;22.65;100444.38;5052098;28;20099;-78
2022/04/14 09:38:06;;;;;;;12.05;5.72;;;;;;;27.50;20.74;100455.88;5055306;28;20033;-78
2022/04/14 09:40:38;;;;;;;11.55;5.35;;;;;;;27.24;21.00;100453.47;5051697;28;20449;-78
2022/04/14 09:43:08;;;;;;;7.35;5.25;;;;;;;27.51;21.46;100447.88;5051852;28;20117;-80
2022/04/14 09:45:34;;;;;;;9.57;5.22;;;;;;;27.56;20.29;100444.72;5053656;28;20033;-78
2022/04/14 09:48:16;;;;;;;12.25;5.22;;;;;;;27.62;23.42;100442.34;5052885;28;20083;-78
2022/04/14 09:50:47;;;;;;;9.73;4.90;;;;;;;27.65;20.69;100423.59;5054256;28;20478;-79
2022/04/14 09:53:15;;;;;;;7.93;5.78;;;;;;;27.78;22.22;100437.13;5036243;28;20469;-79
2022/04/14 09:55:55;;;;;;;8.10;5.65;;;;;;;27.90;23.62;100438.22;5053880;28;20116;-79
2022/04/14 09:58:24;;;;;;;18.45;6.78;;;;;;;27.91;22.99;100431.00;5052239;28;20035;-79
2022/04/14 10:00:53;;;;;;;15.75;7.45;;;;;;;27.91;23.17;100433.91;5053995;28;20082;-79
2022/04/14 10:03:26;;;;;;;14.27;5.38;;;;;;;27.73;23.90;100433.06;5053869;28;20036;-79
2022/04/14 10:05:54;;;;;;;11.45;5.68;;;;;;;27.55;23.82;100422.69;5053774;28;20044;-79
2022/04/14 10:08:20;;;;;;;11.23;5.45;;;;;;;27.12;22.97;100420.97;5053700;28;20029;-79
2022/04/14 10:11:05;;;;;;;14.02;5.95;;;;;;;26.98;23.80;100420.47;5053893;28;20024;-79
2022/04/14 10:13:43;;;;;;;7.80;5.10;;;;;;;26.80;23.50;100423.81;5052307;28;20017;-78
2022/04/14 10:16:09;;;;;;;9.32;5.63;;;;;;;26.82;23.71;100424.81;5052457;28;20427;-79
2022/04/14 10:18:35;;;;;;;8.52;4.53;;;;;;;26.90;23.68;100413.88;5052296;28;20037;-78
2022/04/14 10:21:01;;;;;;;7.50;4.57;;;;;;;26.58;22.26;100413.78;5052798;28;20039;-78
2022/04/14 10:23:27;;;;;;;18.55;4.85;;;;;;;26.56;22.85;100396.06;5053478;28;20029;-78
2022/04/14 10:25:53;;;;;;;10.05;4.22;;;;;;;26.51;24.47;100409.50;5052523;28;20028;-78
2022/04/14 10:28:20;;;;;;;8.20;4.53;;;;;;;26.14;22.82;100417.00;5052649;28;20029;-78
2022/04/14 10:31:00;;;;;;;8.90;4.22;;;;;;;25.72;24.61;100416.63;5052397;28;20036;-79
2022/04/14 10:33:27;;;;;;;9.82;4.35;;;;;;;25.40;24.56;100406.84;5071302;28;20044;-78
2022/04/14 10:35:53;;;;;;;9.65;4.90;;;;;;;25.17;25.93;100403.88;5039353;28;20481;-78
2022/04/14 10:38:36;;;;;;;10.27;4.45;;;;;;;25.08;27.63;100401.50;5039327;28;20082;-79
2022/04/14 10:41:19;;;;;;;10.63;4.05;;;;;;;25.10;27.07;100399.59;5055813;28;20040;-78
2022/04/14 10:43:47;;;;;;;8.63;4.22;;;;;;;25.12;25.10;100399.78;5073457;28;20024;-78
2022/04/14 10:46:15;;;;;;;10.02;4.70;;;;;;;24.83;23.82;100389.56;5039155;28;20032;-78
2022/04/14 10:48:42;;;;;;;9.68;4.95;;;;;;;24.82;26.31;100397.50;5073515;28;20433;-78
2022/04/14 10:51:28;;;;;;;6.78;4.13;;;;;;;24.68;27.65;100393.19;5038894;28;20098;-79
2022/04/14 10:53:58;;;;;;;10.85;4.15;;;;;;;24.51;25.24;100395.84;5056046;28;20031;-79
2022/04/14 10:56:43;;;;;;;7.78;4.40;;;;;;;24.47;28.20;100396.19;5073660;28;20029;-78
2022/04/14 10:59:12;;;;;;;10.23;4.47;;;;;;;24.37;26.77;100397.34;5073619;28;20046;-79
2022/04/14 11:01:47;;;;;;;13.50;4.32;;;;;;;24.36;27.68;100390.72;5073248;28;20054;-78
2022/04/14 11:04:27;;;;;;;14.95;4.40;;;;;;;24.25;24.72;100385.22;5073149;28;20052;-78
2022/04/14 11:06:59;;;;;;;5.13;4.10;;;;;;;24.18;28.66;100385.16;5073256;28;20108;-78
2022/04/14 11:09:59;;;;;;;6.82;4.35;;;;;;;24.07;27.50;100383.34;5072137;28;20187;-79
2022/04/14 11:12:29;;;;;;;11.80;4.35;;;;;;;24.02;26.61;100384.28;5077682;28;20029;-78
2022/04/14 11:15:04;;;;;;;10.90;4.25;;;;;;;24.12;29.38;100387.44;5077343;28;20453;-79
2022/04/14 11:17:47;;;;;;;7.85;4.22;;;;;;;24.13;29.08;100386.06;5042834;28;20415;-78
2022/04/14 11:20:23;;;;;;;5.72;3.83;;;;;;;24.05;28.35;100377.31;5077444;28;20032;-78
2022/04/14 11:23:15;;;;;;;6.72;4.10;;;;;;;23.97;28.66;100371.44;5077228;28;20087;-78
2022/04/14 11:25:53;;;;;;;9.32;4.05;;;;;;;23.85;26.95;100378.13;5077410;28;20115;-78